createdAt,value
2023-02-08T00:00:18.465Z,1.82
2023-02-08T00:03:19.606Z,1.14
2023-02-08T00:06:00.567Z,1.57
2023-02-08T00:08:42.622Z,4.46
2023-02-08T00:11:23.485Z,5.68
2023-02-08T00:14:11.454Z,4.64
2023-02-08T00:16:52.466Z,3.31
2023-02-08T00:19:40.467Z,2.35
2023-02-08T00:22:35.482Z,1.68
2023-02-08T00:25:23.502Z,1.46
2023-02-08T00:28:07.200Z,3.86
2023-02-08T00:31:03.579Z,6.17
2023-02-08T00:33:51.542Z,6.10
2023-02-08T00:36:33.529Z,4.54
2023-02-08T00:39:21.566Z,3.19
2023-02-08T00:41:56.704Z,2.26
2023-02-08T00:44:44.459Z,1.56
2023-02-08T00:47:19.694Z,1.05
2023-02-08T00:50:07.458Z,1.92
2023-02-08T00:52:42.573Z,4.79
2023-02-08T00:55:30.450Z,6.40
2023-02-08T00:58:04.585Z,5.37
2023-02-08T01:00:52.602Z,4.00
2023-02-08T01:03:28.689Z,2.98
2023-02-08T01:06:21.461Z,2.29
2023-02-08T01:09:02.621Z,1.79
2023-02-08T01:11:45.532Z,1.46
2023-02-08T01:14:26.709Z,1.18
2023-02-08T01:17:08.456Z,0.93
2023-02-08T01:20:03.431Z,0.65
2023-02-08T01:22:51.460Z,0.67
2023-02-08T01:25:33.457Z,3.19
2023-02-08T01:28:28.462Z,5.88
2023-02-08T01:31:20.486Z,6.65
2023-02-08T01:33:55.609Z,5.15
2023-02-08T01:36:44.473Z,3.91
2023-02-08T01:39:19.606Z,3.06
2023-02-08T01:42:07.546Z,2.46
2023-02-08T01:45:21.196Z,1.98
2023-02-08T01:48:24.475Z,1.49
2023-02-08T01:51:11.572Z,1.17
2023-02-08T01:54:00.455Z,0.87
2023-02-08T01:56:46.567Z,0.71
2023-02-08T01:59:40.432Z,2.70
2023-02-08T02:02:17.614Z,5.44
2023-02-08T02:05:05.426Z,6.88
2023-02-08T02:07:40.584Z,6.26
2023-02-08T02:10:33.439Z,4.72
2023-02-08T02:13:21.456Z,3.49
2023-02-08T02:16:16.478Z,2.65
2023-02-08T02:19:04.427Z,2.05
2023-02-08T02:22:19.560Z,1.62
2023-02-08T02:25:49.425Z,1.22
2023-02-08T02:28:52.427Z,1.93
2023-02-08T02:31:41.671Z,5.00
2023-02-08T02:34:35.536Z,6.65
2023-02-08T02:37:23.553Z,5.99
2023-02-08T02:40:39.671Z,4.39
2023-02-08T02:43:45.427Z,3.07
2023-02-08T02:46:42.572Z,2.28
2023-02-08T02:49:36.450Z,1.89
2023-02-08T02:52:19.984Z,4.17
2023-02-08T02:55:10.432Z,6.21
2023-02-08T02:57:46.595Z,5.62
2023-02-08T03:00:40.752Z,4.16
2023-02-08T03:03:29.423Z,3.05
2023-02-08T03:06:26.449Z,2.29
2023-02-08T03:09:27.422Z,1.73
2023-02-08T03:12:27.422Z,1.32
2023-02-08T03:15:13.566Z,2.84
2023-02-08T03:18:12.448Z,5.62
2023-02-08T03:20:55.429Z,6.69
2023-02-08T03:23:48.421Z,5.27
2023-02-08T03:27:03.426Z,3.92
2023-02-08T03:30:06.428Z,2.85
2023-02-08T03:33:11.431Z,2.20
2023-02-08T03:36:12.425Z,1.67
2023-02-08T03:39:01.425Z,1.74
2023-02-08T03:41:53.424Z,4.45
2023-02-08T03:44:33.280Z,6.65
2023-02-08T03:47:26.431Z,6.33
2023-02-08T03:50:08.414Z,4.75
2023-02-08T03:52:51.546Z,3.64
2023-02-08T03:55:35.416Z,2.94
2023-02-08T03:58:35.472Z,2.35
2023-02-08T04:01:17.283Z,1.91
2023-02-08T04:04:06.431Z,1.53
2023-02-08T04:06:40.953Z,1.25
2023-02-08T04:09:28.418Z,2.91
2023-02-08T04:12:09.424Z,5.40
2023-02-08T04:14:57.491Z,7.00
2023-02-08T04:17:33.151Z,6.18
2023-02-08T04:20:22.413Z,4.41
2023-02-08T04:23:17.428Z,3.12
2023-02-08T04:26:14.412Z,2.21
2023-02-08T04:29:02.407Z,1.57
2023-02-08T04:31:37.696Z,1.17
2023-02-08T04:34:25.479Z,2.30
2023-02-08T04:37:07.476Z,4.95
2023-02-08T04:40:02.473Z,6.75
2023-02-08T04:42:50.425Z,5.99
2023-02-08T04:45:27.287Z,4.41
2023-02-08T04:48:15.428Z,3.30
2023-02-08T04:50:50.559Z,2.48
2023-02-08T04:53:38.418Z,1.89
2023-02-08T04:56:13.632Z,1.41
2023-02-08T04:59:01.410Z,1.04
2023-02-08T05:01:36.626Z,0.69
2023-02-08T05:04:24.415Z,0.54
2023-02-08T05:07:06.399Z,2.61
2023-02-08T05:10:01.466Z,5.43
2023-02-08T05:12:49.489Z,6.31
2023-02-08T05:15:24.562Z,4.88
2023-02-08T05:18:12.454Z,3.56
2023-02-08T05:20:54.443Z,2.67
2023-02-08T05:23:50.474Z,2.06
2023-02-08T05:26:38.426Z,1.57
2023-02-08T05:29:20.505Z,1.12
2023-02-08T05:32:15.388Z,0.67
2023-02-08T05:35:03.398Z,0.23
2023-02-08T05:37:44.564Z,0.41
2023-02-08T05:40:25.387Z,2.78
2023-02-08T05:43:06.669Z,5.23
2023-02-08T05:45:48.388Z,5.97
2023-02-08T05:48:29.524Z,4.45
2023-02-08T05:51:10.403Z,3.12
2023-02-08T05:53:58.398Z,2.11
2023-02-08T05:56:32.892Z,1.44
2023-02-08T05:59:20.399Z,0.94
2023-02-08T06:02:01.390Z,0.50
2023-02-08T06:04:49.382Z,0.12
2023-02-08T06:07:23.874Z,0.40
2023-02-08T06:10:11.672Z,3.07
2023-02-08T06:12:46.780Z,5.00
2023-02-08T06:15:34.401Z,4.11
2023-02-08T06:18:09.556Z,2.58
2023-02-08T06:20:57.392Z,1.64
2023-02-08T06:23:45.430Z,1.07
2023-02-08T06:26:20.567Z,0.71
2023-02-08T06:29:08.401Z,0.45
2023-02-08T06:31:43.603Z,0.26
2023-02-08T06:34:31.395Z,0.11
2023-02-08T06:37:12.509Z,-0.04
2023-02-08T06:39:53.388Z,0.38
2023-02-08T06:42:35.634Z,3.38
2023-02-08T06:45:17.415Z,5.90
2023-02-08T06:47:58.503Z,6.71
2023-02-08T06:50:39.798Z,5.47
2023-02-08T06:53:28.372Z,4.21
2023-02-08T06:56:02.825Z,3.46
2023-02-08T06:58:50.377Z,2.97
2023-02-08T07:01:25.318Z,2.66
2023-02-08T07:04:13.448Z,2.45
2023-02-08T07:06:50.631Z,2.31
2023-02-08T07:09:38.465Z,2.18
2023-02-08T07:12:13.925Z,2.09
2023-02-08T07:15:01.432Z,1.97
2023-02-08T07:17:35.814Z,1.85
2023-02-08T07:20:24.376Z,1.69
2023-02-08T07:23:19.381Z,2.23
2023-02-08T07:26:09.369Z,5.28
2023-02-08T07:28:51.365Z,6.95
2023-02-08T07:31:39.402Z,6.00
2023-02-08T07:34:14.672Z,4.96
2023-02-08T07:37:02.355Z,4.28
2023-02-08T07:39:37.643Z,3.82
2023-02-08T07:42:25.375Z,3.50
2023-02-08T07:45:00.618Z,3.24
2023-02-08T07:47:48.446Z,3.06
2023-02-08T07:50:30.356Z,2.93
2023-02-08T07:53:11.767Z,2.80
2023-02-08T07:56:00.368Z,2.67
2023-02-08T07:58:41.371Z,2.58
2023-02-08T08:01:29.392Z,2.53
2023-02-08T08:04:03.996Z,2.50
2023-02-08T08:06:53.382Z,3.00
2023-02-08T08:09:27.825Z,5.98
2023-02-08T08:12:15.435Z,8.30
2023-02-08T08:14:49.855Z,8.04
2023-02-08T08:17:37.485Z,6.83
2023-02-08T08:20:26.371Z,5.96
2023-02-08T08:23:14.357Z,5.41
2023-02-08T08:25:56.483Z,5.05
2023-02-08T08:28:49.694Z,4.75
2023-02-08T08:31:28.635Z,4.52
2023-02-08T08:34:18.454Z,4.35
2023-02-08T08:36:53.586Z,4.21
2023-02-08T08:39:42.133Z,4.13
2023-02-08T08:42:16.470Z,4.05
2023-02-08T08:45:05.438Z,3.97
2023-02-08T08:47:53.357Z,4.74
2023-02-08T08:50:34.367Z,7.49
2023-02-08T08:53:23.369Z,9.09
2023-02-08T08:55:57.853Z,8.17
2023-02-08T08:58:45.441Z,7.18
2023-02-08T09:01:19.871Z,6.62
2023-02-08T09:04:07.378Z,6.33
2023-02-08T09:07:03.344Z,6.27
2023-02-08T09:09:54.411Z,6.25
2023-02-08T09:12:29.548Z,6.20
2023-02-08T09:15:19.432Z,6.20
2023-02-08T09:17:54.564Z,6.19
2023-02-08T09:20:45.675Z,6.19
2023-02-08T09:23:23.490Z,6.19
2023-02-08T09:26:16.374Z,6.18
2023-02-08T09:28:51.472Z,6.29
2023-02-08T09:31:44.441Z,6.42
2023-02-08T09:34:32.357Z,6.47
2023-02-08T09:37:07.945Z,6.57
2023-02-08T09:39:56.361Z,6.71
2023-02-08T09:42:43.730Z,6.85
2023-02-08T09:45:57.783Z,6.87
2023-02-08T09:48:38.921Z,6.78
2023-02-08T09:51:30.362Z,6.68
2023-02-08T09:54:34.229Z,6.54
2023-02-08T09:57:28.427Z,6.38
2023-02-08T10:00:07.233Z,6.27
2023-02-08T10:02:57.356Z,6.20
2023-02-08T10:05:38.344Z,6.19
2023-02-08T10:08:25.251Z,6.12
2023-02-08T10:11:29.340Z,6.02
2023-02-08T10:14:20.435Z,5.88
2023-02-08T10:17:07.093Z,5.74
2023-02-08T10:20:18.492Z,5.75
2023-02-08T10:23:35.355Z,5.92
2023-02-08T10:26:38.434Z,6.15
2023-02-08T10:29:31.565Z,6.32
2023-02-08T10:32:50.330Z,6.40
2023-02-08T10:35:37.349Z,6.42
2023-02-08T10:38:45.426Z,6.39
2023-02-08T10:41:32.390Z,6.40
2023-02-08T10:44:19.340Z,6.41
2023-02-08T10:47:13.349Z,6.46
2023-02-08T10:49:50.499Z,6.52
2023-02-08T10:52:38.323Z,6.53
2023-02-08T10:55:24.389Z,6.53
2023-02-08T10:58:08.545Z,6.54
2023-02-08T11:00:50.445Z,6.58
2023-02-08T11:03:36.016Z,6.65
2023-02-08T11:06:32.315Z,6.72
2023-02-08T11:09:20.326Z,6.78
2023-02-08T11:11:56.073Z,6.55
2023-02-08T11:14:54.339Z,6.28
2023-02-08T11:17:34.198Z,6.05
2023-02-08T11:20:36.491Z,5.88
2023-02-08T11:23:37.340Z,5.80
2023-02-08T11:26:38.340Z,5.80
2023-02-08T11:29:19.624Z,5.67
2023-02-08T11:32:27.321Z,5.65
2023-02-08T11:35:29.323Z,5.61
2023-02-08T11:38:35.315Z,5.59
2023-02-08T11:41:33.416Z,5.56
2023-02-08T11:44:42.361Z,5.56
2023-02-08T11:47:36.332Z,5.57
2023-02-08T11:50:13.452Z,5.58
2023-02-08T11:53:06.351Z,5.59
2023-02-08T11:55:41.859Z,5.61
2023-02-08T11:58:32.385Z,5.63
2023-02-08T12:01:13.470Z,5.60
2023-02-08T12:04:02.409Z,5.58
2023-02-08T12:07:10.328Z,5.45
2023-02-08T12:10:16.326Z,5.27
2023-02-08T12:13:34.328Z,5.09
2023-02-08T12:16:21.268Z,5.02
2023-02-08T12:19:17.369Z,4.90
2023-02-08T12:22:26.401Z,4.84
2023-02-08T12:25:23.349Z,4.82
2023-02-08T12:28:10.724Z,4.77
2023-02-08T12:31:06.426Z,4.78
2023-02-08T12:34:07.479Z,4.82
2023-02-08T12:37:21.396Z,4.86
2023-02-08T12:40:35.422Z,4.83
2023-02-08T12:43:31.359Z,4.87
2023-02-08T12:46:25.469Z,4.80
2023-02-08T12:49:37.425Z,4.74
2023-02-08T12:52:27.452Z,4.70
2023-02-08T12:55:36.337Z,4.68
2023-02-08T12:58:47.414Z,4.69
2023-02-08T13:01:44.440Z,4.68
2023-02-08T13:04:27.450Z,4.70
2023-02-08T13:07:23.320Z,4.73
2023-02-08T13:10:13.440Z,4.78
2023-02-08T13:13:05.304Z,4.80
2023-02-08T13:16:05.327Z,4.79
2023-02-08T13:19:23.388Z,4.85
2023-02-08T13:22:19.304Z,5.14
2023-02-08T13:25:15.311Z,5.72
2023-02-08T13:28:11.353Z,6.43
2023-02-08T13:30:46.699Z,7.14
2023-02-08T13:33:55.588Z,7.92
2023-02-08T13:36:45.341Z,8.92
2023-02-08T13:39:50.836Z,9.87
2023-02-08T13:42:45.304Z,10.81
2023-02-08T13:45:39.471Z,11.45
2023-02-08T13:48:24.306Z,12.24
2023-02-08T13:51:05.322Z,13.00
2023-02-08T13:53:45.561Z,13.57
2023-02-08T13:56:53.315Z,13.99
2023-02-08T13:59:46.652Z,14.33
2023-02-08T14:02:35.330Z,14.48
2023-02-08T14:05:48.458Z,14.39
2023-02-08T14:08:39.341Z,14.52
2023-02-08T14:11:38.441Z,14.73
2023-02-08T14:14:46.295Z,14.79
2023-02-08T14:17:27.441Z,14.65
2023-02-08T14:20:22.294Z,14.69
2023-02-08T14:23:00.587Z,14.76
2023-02-08T14:25:53.300Z,14.61
2023-02-08T14:28:48.995Z,14.29
2023-02-08T14:31:51.332Z,13.54
2023-02-08T14:34:38.291Z,12.60
2023-02-08T14:37:27.324Z,11.72
2023-02-08T14:40:38.461Z,10.95
2023-02-08T14:43:26.399Z,10.13
2023-02-08T14:46:02.733Z,9.53
2023-02-08T14:48:55.364Z,9.01
2023-02-08T14:51:35.667Z,8.65
2023-02-08T14:54:48.337Z,8.12
2023-02-08T14:57:42.433Z,7.25
2023-02-08T15:00:34.328Z,6.38
2023-02-08T15:03:18.322Z,5.68
2023-02-08T15:06:35.292Z,5.10
2023-02-08T15:09:25.311Z,4.45
2023-02-08T15:12:19.424Z,3.96
2023-02-08T15:15:15.312Z,3.46
2023-02-08T15:18:04.302Z,3.05
2023-02-08T15:20:50.321Z,2.68
2023-02-08T15:23:45.407Z,2.30
2023-02-08T15:26:43.374Z,1.96
2023-02-08T15:29:44.267Z,1.64
2023-02-08T15:32:28.289Z,1.35
2023-02-08T15:35:23.287Z,1.08
2023-02-08T15:38:05.361Z,0.82
2023-02-08T15:41:22.300Z,0.60
2023-02-08T15:44:41.342Z,0.37
2023-02-08T15:47:23.441Z,0.15
2023-02-08T15:50:14.291Z,-0.04
2023-02-08T15:52:49.423Z,-0.24
2023-02-08T15:55:47.300Z,-0.42
2023-02-08T15:58:35.437Z,-0.60
2023-02-08T16:01:28.508Z,-0.76
2023-02-08T16:04:12.858Z,-0.91
2023-02-08T16:07:03.326Z,-1.04
2023-02-08T16:09:45.284Z,-1.17
2023-02-08T16:12:35.279Z,-1.28
2023-02-08T16:15:17.295Z,-1.36
2023-02-08T16:18:53.195Z,-1.46
2023-02-08T16:21:55.286Z,-1.58
2023-02-08T16:24:43.288Z,-1.68
2023-02-08T16:27:40.322Z,-1.78
2023-02-08T16:30:29.363Z,-1.89
2023-02-08T16:33:11.295Z,-1.98
2023-02-08T16:36:10.290Z,-2.09
2023-02-08T16:39:20.306Z,-2.20
2023-02-08T16:42:15.136Z,-2.28
2023-02-08T16:45:19.298Z,-2.35
2023-02-08T16:48:18.477Z,-2.43
2023-02-08T16:51:15.280Z,-2.51
2023-02-08T16:54:07.301Z,-2.57
2023-02-08T16:56:44.668Z,-2.64
2023-02-08T16:59:35.380Z,-2.70
2023-02-08T17:02:18.615Z,-2.76
2023-02-08T17:05:01.312Z,-2.79
2023-02-08T17:07:42.421Z,-2.82
2023-02-08T17:10:28.635Z,-2.84
2023-02-08T17:13:20.214Z,-2.84
2023-02-08T17:16:03.291Z,-2.86
2023-02-08T17:18:44.456Z,-2.86
2023-02-08T17:21:25.364Z,-2.86
2023-02-08T17:24:06.461Z,-2.87
2023-02-08T17:26:48.603Z,-2.43
2023-02-08T17:29:52.706Z,1.20
2023-02-08T17:32:40.343Z,3.47
2023-02-08T17:35:19.453Z,4.26
2023-02-08T17:38:07.606Z,3.01
2023-02-08T17:40:43.443Z,1.79
2023-02-08T17:43:32.431Z,1.01
2023-02-08T17:46:15.042Z,0.46
2023-02-08T17:49:08.410Z,0.03
2023-02-08T17:51:50.287Z,-0.31
2023-02-08T17:54:31.672Z,-0.62
2023-02-08T17:59:54.710Z,-1.12
2023-02-08T18:02:43.677Z,-1.36
2023-02-08T18:05:24.769Z,-1.56
2023-02-08T18:08:12.392Z,-1.76
2023-02-08T18:10:47.699Z,-1.93
2023-02-08T18:13:36.257Z,-2.08
2023-02-08T18:16:17.117Z,-2.23
2023-02-08T18:19:08.322Z,-2.38
2023-02-08T18:21:57.292Z,-2.52
2023-02-08T18:24:45.368Z,-2.67
2023-02-08T18:27:20.479Z,-2.82
2023-02-08T18:30:08.314Z,-3.02
2023-02-08T18:32:47.568Z,-3.21
2023-02-08T18:35:35.245Z,-3.37
2023-02-08T18:38:18.466Z,-3.53
2023-02-08T18:41:07.066Z,-3.65
2023-02-08T18:43:50.376Z,-3.77
2023-02-08T18:46:32.963Z,-3.90
2023-02-08T18:49:23.282Z,-3.99
2023-02-08T18:51:58.798Z,-4.06
2023-02-08T18:54:47.432Z,-4.15
2023-02-08T18:57:22.823Z,-4.23
2023-02-08T19:00:10.274Z,-3.75
2023-02-08T19:02:53.267Z,-0.48
2023-02-08T19:05:37.399Z,2.31
2023-02-08T19:08:20.239Z,3.69
2023-02-08T19:11:03.529Z,3.09
2023-02-08T19:13:45.251Z,1.52
2023-02-08T19:16:27.920Z,0.32
2023-02-08T19:19:18.527Z,-0.42
2023-02-08T19:22:17.272Z,-1.00
2023-02-08T19:25:09.241Z,-1.46
2023-02-08T19:27:45.546Z,-1.83
2023-02-08T19:30:33.328Z,-2.16
2023-02-08T19:33:15.259Z,-2.42
2023-02-08T19:36:22.269Z,-2.68
2023-02-08T19:39:15.308Z,-2.92
2023-02-08T19:41:53.117Z,-3.12
2023-02-08T19:44:44.437Z,-3.30
2023-02-08T19:47:19.709Z,-3.47
2023-02-08T19:50:07.785Z,-3.61
2023-02-08T19:52:56.332Z,-3.75
2023-02-08T19:55:34.932Z,-3.88
2023-02-08T19:58:27.272Z,-4.01
2023-02-08T20:01:16.390Z,-4.17
2023-02-08T20:04:07.365Z,-3.60
2023-02-08T20:06:52.244Z,-0.34
2023-02-08T20:09:34.889Z,2.14
2023-02-08T20:12:16.284Z,2.32
2023-02-08T20:15:04.268Z,0.73
2023-02-08T20:17:45.271Z,-0.51
2023-02-08T20:20:27.492Z,-1.39
2023-02-08T20:23:21.752Z,-1.99
2023-02-08T20:26:20.635Z,-2.54
2023-02-08T20:29:07.302Z,-2.98
2023-02-08T20:32:05.205Z,-3.40
2023-02-08T20:34:59.145Z,-3.71
2023-02-08T20:37:42.456Z,-4.02
2023-02-08T20:40:24.302Z,-4.26
2023-02-08T20:43:08.368Z,-4.51
2023-02-08T20:45:50.303Z,-4.49
2023-02-08T20:48:38.262Z,-1.67
2023-02-08T20:51:15.134Z,0.98
2023-02-08T20:54:07.431Z,2.52
2023-02-08T20:56:41.758Z,3.55
2023-02-08T20:59:29.505Z,4.26
2023-02-08T21:02:13.275Z,4.78
2023-02-08T21:04:55.776Z,5.18
2023-02-08T21:07:37.346Z,3.90
2023-02-08T21:10:26.287Z,2.28
2023-02-08T21:13:00.742Z,1.17
2023-02-08T21:15:49.364Z,0.37
2023-02-08T21:18:24.802Z,-0.26
2023-02-08T21:21:14.284Z,-0.79
2023-02-08T21:24:03.275Z,-1.29
2023-02-08T21:26:51.219Z,-1.80
2023-02-08T21:29:26.434Z,-2.25
2023-02-08T21:32:14.299Z,-2.67
2023-02-08T21:34:49.673Z,-3.03
2023-02-08T21:37:41.196Z,-3.35
2023-02-08T21:40:16.384Z,-3.61
2023-02-08T21:43:04.258Z,-3.84
2023-02-08T21:45:47.300Z,-4.06
2023-02-08T21:48:55.309Z,-4.27
2023-02-08T21:51:55.242Z,-4.50
2023-02-08T21:54:38.227Z,-4.56
2023-02-08T21:57:22.216Z,-2.15
2023-02-08T22:00:18.217Z,1.20
2023-02-08T22:03:06.221Z,3.07
2023-02-08T22:06:00.117Z,4.14
2023-02-08T22:08:48.199Z,5.01
2023-02-08T22:11:23.560Z,4.95
2023-02-08T22:14:11.346Z,3.08
2023-02-08T22:16:54.188Z,1.40
2023-02-08T22:19:55.254Z,0.11
2023-02-08T22:22:55.511Z,-1.00
2023-02-08T22:25:50.212Z,-1.91
2023-02-08T22:28:38.201Z,-2.62
2023-02-08T22:31:12.414Z,-3.15
2023-02-08T22:34:00.197Z,-3.69
2023-02-08T22:36:48.236Z,-4.21
2023-02-08T22:39:25.538Z,-4.60
2023-02-08T22:42:16.247Z,-2.60
2023-02-08T22:45:01.701Z,0.54
2023-02-08T22:47:46.014Z,2.29
2023-02-08T22:50:29.407Z,3.18
2023-02-08T22:53:11.200Z,4.00
2023-02-08T22:55:57.188Z,4.50
2023-02-08T22:58:45.197Z,4.87
2023-02-08T23:01:19.891Z,5.12
2023-02-08T23:04:08.401Z,3.57
2023-02-08T23:06:44.281Z,1.82
2023-02-08T23:09:32.219Z,0.53
2023-02-08T23:12:15.400Z,-0.57
2023-02-08T23:15:03.184Z,-1.54
2023-02-08T23:17:58.205Z,-2.27
2023-02-08T23:20:47.459Z,-2.88
2023-02-08T23:23:36.210Z,-3.33
2023-02-08T23:26:26.510Z,-3.76
2023-02-08T23:29:01.351Z,-4.16
2023-02-08T23:31:49.316Z,-4.52
2023-02-08T23:34:25.904Z,-3.81
2023-02-08T23:37:14.327Z,-0.47
2023-02-08T23:39:56.185Z,1.55
2023-02-08T23:42:51.999Z,2.65
2023-02-08T23:45:41.383Z,3.47
2023-02-08T23:48:16.500Z,4.22
2023-02-08T23:51:05.183Z,4.89
2023-02-08T23:53:41.299Z,5.06
2023-02-08T23:56:39.232Z,3.49
2023-02-08T23:59:14.317Z,1.77
